createdAt,value
2019-05-12T00:02:39.658Z,9.33
2019-05-12T00:05:43.880Z,8.90
2019-05-12T00:08:48.839Z,10.00
2019-05-12T00:11:55.635Z,9.83
2019-05-12T00:15:00.005Z,9.90
2019-05-12T00:18:04.539Z,10.13
2019-05-12T00:21:08.959Z,10.03
2019-05-12T00:24:13.379Z,10.60
2019-05-12T00:27:19.627Z,10.23
2019-05-12T00:30:45.883Z,10.43
2019-05-12T00:33:50.161Z,10.70
2019-05-12T00:36:55.259Z,10.40
2019-05-12T00:39:59.806Z,9.90
2019-05-12T00:43:05.078Z,10.20
2019-05-12T00:46:10.196Z,10.40
2019-05-12T00:49:15.160Z,10.17
2019-05-12T00:52:20.063Z,10.40
2019-05-12T00:55:25.228Z,10.20
2019-05-12T00:58:29.591Z,10.73
2019-05-12T01:01:35.127Z,10.37
2019-05-12T01:04:39.489Z,10.40
2019-05-12T01:07:43.874Z,10.20
2019-05-12T01:10:49.039Z,11.37
2019-05-12T01:13:54.152Z,10.00
2019-05-12T01:16:58.496Z,10.77
2019-05-12T01:20:03.119Z,10.30
2019-05-12T01:23:09.894Z,10.93
2019-05-12T01:26:14.943Z,10.57
2019-05-12T01:29:19.335Z,9.93
2019-05-12T01:32:34.095Z,10.33
2019-05-12T01:35:39.816Z,10.70
2019-05-12T01:38:44.905Z,10.63
2019-05-12T01:41:49.963Z,10.10
2019-05-12T01:44:55.158Z,9.70
2019-05-12T01:47:59.559Z,10.10
2019-05-12T01:51:04.202Z,10.33
2019-05-12T01:54:14.694Z,10.10
2019-05-12T01:57:14.720Z,9.93
2019-05-12T02:00:19.274Z,9.67
2019-05-12T02:03:24.363Z,9.93
2019-05-12T02:06:28.851Z,10.10
2019-05-12T02:09:35.250Z,10.30
2019-05-12T02:12:39.971Z,10.27
2019-05-12T02:15:45.206Z,9.50
2019-05-12T02:18:50.084Z,9.67
2019-05-12T02:21:55.215Z,9.80
2019-05-12T02:24:59.587Z,11.20
2019-05-12T02:28:03.966Z,10.27
2019-05-12T02:31:09.633Z,9.70
2019-05-12T02:34:15.799Z,10.20
2019-05-12T02:37:20.990Z,10.30
2019-05-12T02:40:25.681Z,10.60
2019-05-12T02:43:34.633Z,10.93
2019-05-12T02:46:37.607Z,10.77
2019-05-12T02:49:44.776Z,10.40
2019-05-12T02:52:48.205Z,10.10
2019-05-12T02:55:54.338Z,9.50
2019-05-12T02:59:05.058Z,9.73
2019-05-12T03:02:09.944Z,10.00
2019-05-12T03:05:14.966Z,9.37
2019-05-12T03:08:25.684Z,9.13
2019-05-12T03:11:29.773Z,9.33
2019-05-12T03:14:40.180Z,10.90
2019-05-12T03:17:40.896Z,10.67
2019-05-12T03:20:45.643Z,11.20
2019-05-12T03:23:50.180Z,10.43
2019-05-12T03:26:55.407Z,11.20
2019-05-12T03:29:59.854Z,10.60
2019-05-12T03:33:09.644Z,10.97
2019-05-12T03:36:10.699Z,10.70
2019-05-12T03:39:15.250Z,11.33
2019-05-12T03:42:20.063Z,10.90
2019-05-12T03:45:25.183Z,10.77
2019-05-12T03:48:29.912Z,11.03
2019-05-12T03:51:35.083Z,11.17
2019-05-12T03:54:40.107Z,11.47
2019-05-12T03:57:45.201Z,10.63
2019-05-12T04:00:49.776Z,11.27
2019-05-12T04:03:54.889Z,11.50
2019-05-12T04:06:59.205Z,11.30
2019-05-12T04:10:05.291Z,11.47
2019-05-12T04:13:10.158Z,10.80
2019-05-12T04:16:16.464Z,12.20
2019-05-12T04:19:20.743Z,11.73
2019-05-12T04:22:25.125Z,11.77
2019-05-12T04:25:46.253Z,11.27
2019-05-12T04:28:35.487Z,12.53
2019-05-12T04:31:39.886Z,11.53
2019-05-12T04:34:44.795Z,12.27
2019-05-12T04:37:49.304Z,11.17
2019-05-12T04:40:55.341Z,12.13
2019-05-12T04:47:25.314Z,11.90
2019-05-12T04:50:29.458Z,12.13
2019-05-12T04:53:35.196Z,13.07
2019-05-12T04:56:39.840Z,12.17
2019-05-12T04:59:45.113Z,12.30
2019-05-12T05:02:49.755Z,12.80
2019-05-12T05:05:54.909Z,12.50
2019-05-12T05:08:59.611Z,13.00
2019-05-12T05:12:04.670Z,12.40
2019-05-12T05:15:09.528Z,12.47
2019-05-12T05:18:13.924Z,12.70
2019-05-12T05:21:18.311Z,12.70
2019-05-12T05:24:23.529Z,13.17
2019-05-12T05:27:29.023Z,13.90
2019-05-12T05:30:34.298Z,13.00
2019-05-12T05:33:38.881Z,13.50
2019-05-12T05:36:43.463Z,12.80
2019-05-12T05:39:49.722Z,12.97
2019-05-12T05:42:54.321Z,13.47
2019-05-12T05:46:02.644Z,12.60
2019-05-12T05:49:05.047Z,13.33
2019-05-12T05:52:09.462Z,12.63
2019-05-12T05:55:19.965Z,13.07
2019-05-12T05:58:21.044Z,12.03
2019-05-12T06:01:25.481Z,12.60
2019-05-12T06:04:30.159Z,12.50
2019-05-12T06:07:38.906Z,12.00
2019-05-12T06:10:40.743Z,12.83
2019-05-12T06:13:45.159Z,12.30
2019-05-12T06:16:49.609Z,13.37
2019-05-12T06:19:54.555Z,12.67
2019-05-12T06:22:59.022Z,13.27
2019-05-12T06:26:04.645Z,13.60
2019-05-12T06:29:11.446Z,12.07
2019-05-12T06:32:15.657Z,13.20
2019-05-12T06:35:20.144Z,13.40
2019-05-12T06:38:31.082Z,13.10
2019-05-12T06:41:34.722Z,12.37
2019-05-12T06:44:39.196Z,13.00
2019-05-12T06:47:49.541Z,13.73
2019-05-12T06:50:53.390Z,13.43
2019-05-12T06:54:00.823Z,13.03
2019-05-12T06:57:18.771Z,12.67
2019-05-12T07:00:10.209Z,12.50
2019-05-12T07:03:19.569Z,12.17
2019-05-12T07:06:21.031Z,12.50
2019-05-12T07:09:28.728Z,12.80
2019-05-12T07:12:39.661Z,12.00
2019-05-12T07:15:40.565Z,10.63
2019-05-12T07:18:46.499Z,11.10
2019-05-12T07:21:58.238Z,11.23
2019-05-12T07:24:58.934Z,10.27
2019-05-12T07:28:07.661Z,11.87
2019-05-12T07:31:10.053Z,10.53
2019-05-12T07:34:14.595Z,10.93
2019-05-12T07:37:20.791Z,9.73
2019-05-12T07:40:30.067Z,9.80
2019-05-12T07:43:33.911Z,9.97
2019-05-12T07:46:39.584Z,9.60
2019-05-12T07:49:45.068Z,10.10
2019-05-12T07:52:49.646Z,8.57
2019-05-12T07:55:54.056Z,9.07
2019-05-12T07:58:58.578Z,8.63
2019-05-12T08:02:03.958Z,9.23
2019-05-12T08:05:11.017Z,9.53
2019-05-12T08:08:15.608Z,8.93
2019-05-12T08:11:20.058Z,8.67
2019-05-12T08:14:29.196Z,8.70
2019-05-12T08:17:30.792Z,10.03
2019-05-12T08:20:35.663Z,9.63
2019-05-12T08:23:41.114Z,8.80
2019-05-12T08:26:49.593Z,8.43
2019-05-12T08:30:00.995Z,7.73
2019-05-12T08:33:03.740Z,6.87
2019-05-12T08:36:14.011Z,7.07
2019-05-12T08:39:21.274Z,6.27
2019-05-12T08:42:23.974Z,5.50
2019-05-12T08:45:33.981Z,5.87
2019-05-12T08:48:36.512Z,4.77
2019-05-12T08:51:44.102Z,5.13
2019-05-12T08:54:49.532Z,5.03
2019-05-12T08:57:54.752Z,4.63
2019-05-12T09:01:00.591Z,5.17
2019-05-12T09:04:12.143Z,5.70
2019-05-12T09:07:15.604Z,5.40
2019-05-12T09:10:23.510Z,6.07
2019-05-12T09:13:27.913Z,5.70
2019-05-12T09:16:33.677Z,5.03
2019-05-12T09:19:39.886Z,6.33
2019-05-12T09:22:44.777Z,6.90
2019-05-12T09:25:50.015Z,6.50
2019-05-12T09:28:56.506Z,6.43
2019-05-12T09:32:05.438Z,6.57
2019-05-12T09:35:09.020Z,7.27
2019-05-12T09:38:21.200Z,6.93
2019-05-12T09:41:20.372Z,7.50
2019-05-12T09:44:30.394Z,6.20
2019-05-12T09:47:35.259Z,7.00
2019-05-12T09:50:40.115Z,7.40
2019-05-12T09:53:50.921Z,7.93
2019-05-12T09:56:55.334Z,8.87
2019-05-12T09:59:59.536Z,8.63
2019-05-12T10:03:08.092Z,8.77
2019-05-12T10:06:16.754Z,8.50
2019-05-12T10:09:19.777Z,8.53
2019-05-12T10:12:24.557Z,7.70
2019-05-12T10:15:29.351Z,7.53
2019-05-12T10:18:34.250Z,6.93
2019-05-12T10:21:38.982Z,5.50
2019-05-12T10:24:55.250Z,4.87
2019-05-12T10:27:53.150Z,4.20
2019-05-12T10:30:57.538Z,3.17
2019-05-12T10:34:24.017Z,3.33
2019-05-12T10:37:29.530Z,3.30
2019-05-12T10:40:34.195Z,3.40
2019-05-12T10:43:39.003Z,2.80
2019-05-12T10:46:44.424Z,3.37
2019-05-12T10:49:49.469Z,3.80
2019-05-12T10:52:53.991Z,3.30
2019-05-12T10:55:58.909Z,4.07
2019-05-12T10:59:05.070Z,3.93
2019-05-12T11:02:10.005Z,4.30
2019-05-12T11:05:21.418Z,3.80
2019-05-12T11:08:21.086Z,5.00
2019-05-12T11:11:31.976Z,7.30
2019-05-12T11:14:34.314Z,10.67
2019-05-12T11:18:13.461Z,15.00
2019-05-12T11:21:34.143Z,16.53
2019-05-12T11:24:44.625Z,18.90
2019-05-12T11:27:50.058Z,19.33
2019-05-12T11:31:13.525Z,18.40
2019-05-12T11:34:17.467Z,21.33
2019-05-12T11:37:23.123Z,26.43
2019-05-12T11:40:27.748Z,28.20
2019-05-12T11:43:33.771Z,28.57
2019-05-12T11:46:38.440Z,28.73
2019-05-12T11:49:44.145Z,31.43
2019-05-12T11:52:51.094Z,29.27
2019-05-12T11:55:55.465Z,31.50
2019-05-12T11:59:00.334Z,32.80
2019-05-12T12:02:05.113Z,32.10
2019-05-12T12:05:09.877Z,31.13
2019-05-12T12:08:14.702Z,32.87
2019-05-12T12:11:24.739Z,32.90
2019-05-12T12:14:31.590Z,33.07
2019-05-12T12:17:35.743Z,32.90
2019-05-12T12:20:40.307Z,31.27
2019-05-12T12:23:48.815Z,32.00
2019-05-12T12:26:53.622Z,31.67
2019-05-12T12:29:57.779Z,29.13
2019-05-12T12:33:04.140Z,27.93
2019-05-12T12:36:08.610Z,22.40
2019-05-12T12:39:23.651Z,23.80
2019-05-12T12:42:30.272Z,22.07
2019-05-12T12:45:53.728Z,23.17
2019-05-12T12:49:05.217Z,22.30
2019-05-12T12:52:07.442Z,22.47
2019-05-12T12:55:14.005Z,24.23
2019-05-12T12:58:21.137Z,25.40
2019-05-12T13:01:29.189Z,25.00
2019-05-12T13:04:43.082Z,24.53
2019-05-12T13:07:49.503Z,25.17
2019-05-12T13:10:55.443Z,25.13
2019-05-12T13:13:59.938Z,23.80
2019-05-12T13:17:04.433Z,23.43
2019-05-12T13:20:09.340Z,22.03
2019-05-12T13:23:14.349Z,22.83
2019-05-12T13:26:19.002Z,22.13
2019-05-12T13:29:26.365Z,23.50
2019-05-12T13:32:32.347Z,23.23
2019-05-12T13:35:35.793Z,24.60
2019-05-12T13:38:40.694Z,23.67
2019-05-12T13:41:45.231Z,22.47
2019-05-12T13:44:50.137Z,24.13
2019-05-12T13:47:57.855Z,23.17
2019-05-12T13:51:08.304Z,22.67
2019-05-12T13:54:08.343Z,21.97
2019-05-12T13:57:13.401Z,21.80
2019-05-12T14:00:18.237Z,24.23
2019-05-12T14:03:22.707Z,22.53
2019-05-12T14:06:32.170Z,20.60
2019-05-12T14:09:34.326Z,22.70
2019-05-12T14:12:49.557Z,20.70
2019-05-12T14:16:02.851Z,18.70
2019-05-12T14:19:07.203Z,19.60
2019-05-12T14:22:15.560Z,20.47
2019-05-12T14:25:20.938Z,22.50
2019-05-12T14:28:24.656Z,23.53
2019-05-12T14:31:35.147Z,23.47
2019-05-12T14:34:59.149Z,22.57
2019-05-12T14:37:59.900Z,22.80
2019-05-12T14:41:10.541Z,23.03
2019-05-12T14:44:13.568Z,23.40
2019-05-12T14:47:25.687Z,21.23
2019-05-12T14:50:25.602Z,21.40
2019-05-12T14:53:32.854Z,19.37
2019-05-12T14:56:36.534Z,19.30
2019-05-12T14:59:43.060Z,18.83
2019-05-12T15:02:47.641Z,17.60
2019-05-12T15:05:54.532Z,17.57
2019-05-12T15:08:59.923Z,17.27
2019-05-12T15:12:16.276Z,17.17
2019-05-12T15:15:40.533Z,19.20
2019-05-12T15:18:49.094Z,17.47
2019-05-12T15:21:53.724Z,18.47
2019-05-12T15:24:59.109Z,18.17
2019-05-12T15:28:04.033Z,19.07
2019-05-12T15:31:09.223Z,19.57
2019-05-12T15:34:14.398Z,19.17
2019-05-12T15:37:19.313Z,19.53
2019-05-12T15:40:23.890Z,22.00
2019-05-12T15:43:29.701Z,24.90
2019-05-12T15:46:41.259Z,27.30
2019-05-12T15:49:40.758Z,29.33
2019-05-12T15:52:46.456Z,29.30
2019-05-12T15:55:50.980Z,32.13
2019-05-12T15:58:55.804Z,33.50
2019-05-12T16:02:11.976Z,33.40
2019-05-12T16:05:10.201Z,33.20
2019-05-12T16:08:18.070Z,33.70
2019-05-12T16:11:24.411Z,32.23
2019-05-12T16:14:30.366Z,30.37
2019-05-12T16:17:36.285Z,30.70
2019-05-12T16:20:41.367Z,29.63
2019-05-12T16:23:46.258Z,28.77
2019-05-12T16:26:53.167Z,28.13
2019-05-12T16:29:58.709Z,27.97
2019-05-12T16:33:04.898Z,27.03
2019-05-12T16:36:14.270Z,25.47
2019-05-12T16:39:16.756Z,24.77
2019-05-12T16:42:23.580Z,24.70
2019-05-12T16:45:34.062Z,22.10
2019-05-12T16:48:42.109Z,21.30
2019-05-12T16:51:47.702Z,21.90
2019-05-12T16:54:54.041Z,20.07
2019-05-12T16:57:59.128Z,20.43
2019-05-12T17:01:04.090Z,20.50
2019-05-12T17:04:13.300Z,20.40
2019-05-12T17:07:20.771Z,22.30
2019-05-12T17:10:24.977Z,21.07
2019-05-12T17:13:29.494Z,21.43
2019-05-12T17:16:42.049Z,19.70
2019-05-12T17:19:43.337Z,20.60
2019-05-12T17:22:54.379Z,19.87
2019-05-12T17:25:57.349Z,18.63
2019-05-12T17:29:02.911Z,18.20
2019-05-12T17:32:08.241Z,18.17
2019-05-12T17:35:14.977Z,16.87
2019-05-12T17:38:24.904Z,17.87
2019-05-12T17:41:31.420Z,16.47
2019-05-12T17:44:37.338Z,15.43
2019-05-12T17:47:44.556Z,15.00
2019-05-12T17:50:50.654Z,13.50
2019-05-12T17:53:56.828Z,12.43
2019-05-12T17:57:04.021Z,11.63
2019-05-12T18:00:11.047Z,11.67
2019-05-12T18:03:21.846Z,11.80
2019-05-12T18:06:29.715Z,11.37
2019-05-12T18:09:31.445Z,11.93
2019-05-12T18:12:44.458Z,11.70
2019-05-12T18:15:44.701Z,12.27
2019-05-12T18:18:49.919Z,11.83
2019-05-12T18:22:02.796Z,12.70
2019-05-12T18:25:04.150Z,11.60
2019-05-12T18:28:11.006Z,12.53
2019-05-12T18:31:16.070Z,11.80
2019-05-12T18:34:22.308Z,11.73
2019-05-12T18:37:27.971Z,12.03
2019-05-12T18:40:34.471Z,12.87
2019-05-12T18:43:39.630Z,12.43
2019-05-12T18:46:46.626Z,14.63
2019-05-12T18:49:53.868Z,13.67
2019-05-12T18:52:58.707Z,13.33
2019-05-12T18:56:10.247Z,13.57
2019-05-12T18:59:13.693Z,13.30
2019-05-12T19:02:23.273Z,12.47
2019-05-12T19:05:30.868Z,13.10
2019-05-12T19:08:34.968Z,12.10
2019-05-12T19:11:44.323Z,11.00
2019-05-12T19:14:51.767Z,10.67
2019-05-12T19:17:55.047Z,9.93
2019-05-12T19:21:00.244Z,9.43
2019-05-12T19:24:08.592Z,8.93
2019-05-12T19:27:16.568Z,8.87
2019-05-12T19:30:25.264Z,9.00
2019-05-12T19:33:28.138Z,9.37
2019-05-12T19:36:35.922Z,9.10
2019-05-12T19:39:46.101Z,9.13
2019-05-12T19:42:53.738Z,8.87
2019-05-12T19:46:02.963Z,7.80
2019-05-12T19:49:04.517Z,8.23
2019-05-12T19:52:09.554Z,7.53
2019-05-12T19:55:15.532Z,7.90
2019-05-12T19:58:23.615Z,7.63
2019-05-12T20:01:32.802Z,7.03
2019-05-12T20:04:42.066Z,7.40
2019-05-12T20:07:44.374Z,6.73
2019-05-12T20:10:49.614Z,6.93
2019-05-12T20:13:54.317Z,7.27
2019-05-12T20:16:58.907Z,7.43
2019-05-12T20:20:04.759Z,7.57
2019-05-12T20:23:10.762Z,6.70
2019-05-12T20:26:15.297Z,7.00
2019-05-12T20:29:24.561Z,6.73
2019-05-12T20:32:28.928Z,6.93
2019-05-12T20:35:33.958Z,6.87
2019-05-12T20:38:41.074Z,7.07
2019-05-12T20:41:46.069Z,6.23
2019-05-12T20:44:57.932Z,5.77
2019-05-12T20:47:58.578Z,6.47
2019-05-12T20:51:03.694Z,6.17
2019-05-12T20:54:14.118Z,5.90
2019-05-12T20:57:16.529Z,5.80
2019-05-12T21:00:21.038Z,5.83
2019-05-12T21:03:25.609Z,5.30
2019-05-12T21:06:33.126Z,5.93
2019-05-12T21:09:36.228Z,6.00
2019-05-12T21:12:46.159Z,5.73
2019-05-12T21:15:47.057Z,6.00
2019-05-12T21:19:02.109Z,5.80
2019-05-12T21:21:59.191Z,6.00
2019-05-12T21:25:04.283Z,5.93
2019-05-12T21:28:08.707Z,5.23
2019-05-12T21:31:15.229Z,5.07
2019-05-12T21:34:21.567Z,5.13
2019-05-12T21:37:25.813Z,5.33
2019-05-12T21:40:31.937Z,5.00
2019-05-12T21:43:36.530Z,5.33
2019-05-12T21:46:47.406Z,4.73
2019-05-12T21:49:48.630Z,6.03
2019-05-12T21:52:59.362Z,4.57
2019-05-12T21:56:04.294Z,5.13
2019-05-12T21:59:07.999Z,5.03
2019-05-12T22:02:14.673Z,5.00
2019-05-12T22:05:23.651Z,5.70
2019-05-12T22:08:27.237Z,5.17
2019-05-12T22:11:34.385Z,5.23
2019-05-12T22:14:40.785Z,4.97
2019-05-12T22:18:04.744Z,5.20
2019-05-12T22:21:08.736Z,5.47
2019-05-12T22:24:14.627Z,5.77
2019-05-12T22:27:22.887Z,5.93
2019-05-12T22:30:27.116Z,5.53
2019-05-12T22:33:33.407Z,5.57
2019-05-12T22:36:37.607Z,5.80
2019-05-12T22:39:44.400Z,5.90
2019-05-12T22:42:50.694Z,5.80
2019-05-12T22:45:55.507Z,6.00
2019-05-12T22:48:59.847Z,6.10
2019-05-12T22:52:07.259Z,6.20
2019-05-12T22:55:14.009Z,5.97
2019-05-12T22:58:22.479Z,6.03
2019-05-12T23:01:25.202Z,5.90
2019-05-12T23:04:35.667Z,6.13
2019-05-12T23:07:36.196Z,5.90
2019-05-12T23:10:41.496Z,5.83
2019-05-12T23:13:47.341Z,6.10
2019-05-12T23:16:54.371Z,5.63
2019-05-12T23:19:58.519Z,5.43
2019-05-12T23:23:08.867Z,4.67
2019-05-12T23:26:10.956Z,4.87
2019-05-12T23:29:20.318Z,5.13
2019-05-12T23:32:24.056Z,4.83
2019-05-12T23:35:28.383Z,4.90
2019-05-12T23:38:34.848Z,5.33
2019-05-12T23:41:39.995Z,5.00
2019-05-12T23:44:44.997Z,4.83
2019-05-12T23:47:49.471Z,4.00
2019-05-12T23:50:54.329Z,4.13
2019-05-12T23:54:00.296Z,4.60
2019-05-12T23:57:05.360Z,4.23
